Time;durP1;ratioP1;P1;durP2;ratioP2;P2;SDS_P1;SDS_P2;PMS_P1;PMS_P2;Temp;Humidity;BMP_temperature;BMP_pressure;BME280_temperature;BME280_humidity;BME280_pressure;Samples;Min_cycle;Max_cycle;Signal;HPM_P1;HPM_P2
2022/12/31 00:01:00;;;;;;;10.98;1.05;;;;;;;8.97;56.48;100042.09;4926321;28;20082;-72
2022/12/31 00:03:25;;;;;;;7.43;0.30;;;;;;;8.45;57.64;100034.00;4939584;28;20358;-73
2022/12/31 00:05:51;;;;;;;7.60;1.33;;;;;;;9.01;56.09;100034.97;4912569;28;20038;-73
2022/12/31 00:08:16;;;;;;;2.08;0.82;;;;;;;9.26;55.44;100039.03;4925529;28;20283;-74
2022/12/31 00:10:42;;;;;;;7.35;1.30;;;;;;;9.08;55.77;100040.75;4941392;28;20786;-72
2022/12/31 00:13:09;;;;;;;7.72;1.02;;;;;;;8.86;56.71;100046.09;4928210;28;20106;-75
2022/12/31 00:15:35;;;;;;;5.82;0.57;;;;;;;9.35;55.28;100052.47;4907915;28;20110;-74
2022/12/31 00:18:04;;;;;;;3.80;0.40;;;;;;;8.60;57.63;100061.09;4943017;28;20125;-74
2022/12/31 00:20:30;;;;;;;5.25;0.55;;;;;;;8.67;57.09;100051.25;4911520;28;20603;-74
2022/12/31 00:22:55;;;;;;;6.57;0.43;;;;;;;9.01;56.26;100044.53;4941533;28;20092;-74
2022/12/31 00:25:21;;;;;;;6.50;0.47;;;;;;;8.85;56.97;100055.69;4926345;28;20095;-75
2022/12/31 00:27:46;;;;;;;3.05;0.47;;;;;;;8.61;57.74;100059.38;4941315;28;20057;-75
2022/12/31 00:30:12;;;;;;;7.55;0.88;;;;;;;8.83;56.92;100057.53;4928469;28;20290;-76
2022/12/31 00:32:38;;;;;;;5.10;0.93;;;;;;;9.07;56.13;100065.09;4923453;28;20051;-73
2022/12/31 00:35:04;;;;;;;2.75;0.47;;;;;;;9.29;55.56;100062.34;4940705;28;20331;-72
2022/12/31 00:37:30;;;;;;;4.97;0.43;;;;;;;8.98;56.43;100062.03;4924930;28;20307;-72
2022/12/31 00:39:55;;;;;;;5.93;1.65;;;;;;;9.27;55.77;100067.63;4926595;28;20417;-69
2022/12/31 00:42:20;;;;;;;6.50;0.50;;;;;;;8.87;56.88;100064.25;4925157;28;20046;-70
2022/12/31 00:44:46;;;;;;;9.13;0.95;;;;;;;8.80;56.99;100067.22;4923502;28;20062;-68
2022/12/31 00:47:11;;;;;;;4.50;0.55;;;;;;;9.43;55.16;100062.50;4926464;28;20066;-68
2022/12/31 00:49:37;;;;;;;6.05;0.90;;;;;;;9.17;56.05;100061.16;4924605;28;20413;-70
2022/12/31 00:52:05;;;;;;;5.95;0.40;;;;;;;9.14;56.25;100061.28;4926649;28;20047;-69
2022/12/31 00:54:30;;;;;;;5.22;0.90;;;;;;;9.11;56.82;100066.66;4925084;28;20031;-69
2022/12/31 00:56:56;;;;;;;3.53;0.57;;;;;;;8.71;57.78;100068.47;4925186;28;20133;-72
2022/12/31 00:59:21;;;;;;;4.50;0.32;;;;;;;8.78;58.21;100062.06;4925326;28;20130;-71
2022/12/31 01:01:48;;;;;;;5.45;0.85;;;;;;;8.86;58.42;100069.56;4925838;28;20277;-75
2022/12/31 01:04:18;;;;;;;4.80;0.80;;;;;;;8.69;59.20;100080.69;4926766;28;20051;-71
2022/12/31 01:06:44;;;;;;;9.25;0.57;;;;;;;8.53;60.13;100076.16;4940315;28;20039;-71
2022/12/31 01:09:11;;;;;;;5.03;0.80;;;;;;;8.18;60.83;100076.84;4928241;28;20050;-71
2022/12/31 01:11:37;;;;;;;6.93;0.50;;;;;;;8.82;59.44;100083.63;4924652;28;20039;-71
2022/12/31 01:14:08;;;;;;;5.47;1.13;;;;;;;8.73;60.03;100087.50;4929208;28;20332;-72
2022/12/31 01:16:37;;;;;;;7.40;0.55;;;;;;;8.72;60.13;100080.63;4927900;28;20058;-70
2022/12/31 01:19:05;;;;;;;8.20;1.52;;;;;;;8.89;59.47;100082.44;4931867;28;20043;-71
2022/12/31 01:21:32;;;;;;;4.18;0.68;;;;;;;8.82;59.53;100092.28;4944168;28;20115;-70
2022/12/31 01:23:58;;;;;;;6.57;1.65;;;;;;;8.73;59.88;100097.91;4920241;28;20047;-70
2022/12/31 01:26:25;;;;;;;6.55;1.30;;;;;;;8.83;59.54;100099.22;4934632;28;20062;-68
2022/12/31 01:28:50;;;;;;;6.53;1.02;;;;;;;9.10;58.57;100093.66;4929874;28;20051;-77
2022/12/31 01:31:17;;;;;;;5.90;1.00;;;;;;;8.72;59.66;100091.03;4914533;28;20546;-73
2022/12/31 01:33:44;;;;;;;3.28;0.60;;;;;;;8.94;58.88;100091.75;4920197;28;20039;-77
2022/12/31 01:36:12;;;;;;;5.15;1.10;;;;;;;8.50;60.18;100091.94;4945425;28;20560;-74
2022/12/31 01:38:39;;;;;;;5.93;1.05;;;;;;;9.09;58.38;100089.34;4922024;28;20299;-76
2022/12/31 01:41:04;;;;;;;4.38;0.98;;;;;;;8.94;58.85;100094.34;4931337;28;20035;-79
2022/12/31 01:43:42;;;;;;;8.40;1.25;;;;;;;9.26;58.10;100096.41;4945522;28;20449;-77
2022/12/31 01:46:11;;;;;;;3.90;0.98;;;;;;;9.30;57.81;100087.50;4915238;28;20089;-75
2022/12/31 01:48:37;;;;;;;3.92;0.95;;;;;;;9.16;58.01;100091.63;4930415;28;20055;-76
2022/12/31 01:51:04;;;;;;;7.97;1.67;;;;;;;8.90;58.97;100090.19;4931247;28;20035;-72
2022/12/31 01:53:30;;;;;;;6.50;2.13;;;;;;;9.01;58.80;100094.06;4925628;28;20047;-73
2022/12/31 01:55:58;;;;;;;5.53;1.42;;;;;;;8.88;58.83;100089.41;4944393;28;20051;-72
2022/12/31 01:58:37;;;;;;;7.15;0.73;;;;;;;8.88;59.06;100089.41;4944320;28;20149;-74
2022/12/31 02:01:04;;;;;;;6.90;0.95;;;;;;;8.89;58.98;100093.69;4938618;28;20326;-76
2022/12/31 02:03:29;;;;;;;5.53;1.02;;;;;;;9.05;58.02;100090.41;4942896;28;20098;-75
2022/12/31 02:05:58;;;;;;;6.53;1.33;;;;;;;9.12;58.09;100097.00;4929654;28;20117;-75
2022/12/31 02:08:23;;;;;;;4.97;1.13;;;;;;;8.87;59.13;100090.31;4929265;28;20039;-75
2022/12/31 02:10:48;;;;;;;5.15;1.00;;;;;;;8.72;59.30;100101.47;4931370;28;20031;-76
2022/12/31 02:13:14;;;;;;;6.90;1.60;;;;;;;8.96;58.76;100099.47;4930928;28;20476;-76
2022/12/31 02:15:42;;;;;;;7.18;1.00;;;;;;;9.20;57.77;100092.28;4925116;28;20146;-74
2022/12/31 02:18:36;;;;;;;5.75;1.25;;;;;;;8.98;58.71;100093.31;4945600;28;20074;-75
2022/12/31 02:21:21;;;;;;;6.03;0.98;;;;;;;9.05;58.42;100096.44;4926773;28;20503;-74
2022/12/31 02:23:57;;;;;;;4.70;1.13;;;;;;;8.93;58.80;100092.66;4925621;28;20497;-74
2022/12/31 02:26:37;;;;;;;10.00;1.77;;;;;;;8.91;59.15;100096.25;4943737;28;20039;-75
2022/12/31 02:29:24;;;;;;;11.15;1.02;;;;;;;9.11;58.25;100101.38;4929940;28;20051;-75
2022/12/31 02:31:58;;;;;;;4.45;1.00;;;;;;;8.90;58.92;100102.38;4927933;28;20063;-75
2022/12/31 02:34:34;;;;;;;5.53;1.63;;;;;;;9.19;58.47;100101.06;4927243;28;20050;-75
2022/12/31 02:37:05;;;;;;;5.80;0.70;;;;;;;9.26;58.28;100104.22;4926811;28;20043;-75
2022/12/31 02:39:33;;;;;;;3.05;0.80;;;;;;;9.12;58.78;100110.03;4943915;28;20031;-75
2022/12/31 02:42:00;;;;;;;5.13;1.35;;;;;;;9.31;58.25;100108.28;4926162;28;20043;-74
2022/12/31 02:44:31;;;;;;;9.07;2.20;;;;;;;8.59;60.06;100105.47;4927991;28;20031;-74
2022/12/31 02:47:17;;;;;;;4.93;1.17;;;;;;;8.91;59.43;100086.66;4941683;28;20536;-74
2022/12/31 02:50:09;;;;;;;4.53;1.20;;;;;;;9.25;58.44;100090.31;4920930;28;20050;-72
2022/12/31 02:53:09;;;;;;;10.13;1.02;;;;;;;9.00;59.11;100084.56;4943162;28;20095;-75
2022/12/31 02:56:04;;;;;;;3.60;1.05;;;;;;;9.24;58.59;100077.38;4936375;28;20691;-74
2022/12/31 03:02:13;;;;;;;2.83;1.17;;;;;;;9.39;58.21;100079.25;4926573;28;20857;-74
2022/12/31 03:04:42;;;;;;;5.15;1.05;;;;;;;9.28;58.30;100084.13;4924160;28;20923;-74
2022/12/31 03:07:11;;;;;;;2.40;1.00;;;;;;;8.70;61.04;100087.63;4927894;28;20497;-74
2022/12/31 03:09:37;;;;;;;2.55;1.67;;;;;;;8.87;60.59;100079.06;4943599;28;20063;-74
2022/12/31 03:14:50;;;;;;;3.40;1.67;;;;;;;9.04;60.08;100071.31;4942191;28;20551;-73
2022/12/31 03:17:16;;;;;;;6.05;2.20;;;;;;;8.64;61.32;100072.25;4912059;28;20051;-73
2022/12/31 03:22:27;;;;;;;3.58;2.50;;;;;;;8.70;61.20;100066.78;4942125;28;20515;-73
2022/12/31 03:27:39;;;;;;;4.65;2.10;;;;;;;8.37;62.09;100080.38;4927934;28;20043;-74
2022/12/31 03:30:05;;;;;;;4.75;2.67;;;;;;;8.61;61.16;100088.03;4929880;28;20043;-73
2022/12/31 03:32:30;;;;;;;3.75;2.08;;;;;;;8.94;59.78;100063.09;4913546;28;20050;-73
2022/12/31 03:34:56;;;;;;;3.88;2.60;;;;;;;8.59;61.21;100069.00;4927992;28;20039;-73
2022/12/31 03:37:21;;;;;;;6.05;2.97;;;;;;;8.68;60.84;100079.03;4929330;28;20938;-75
2022/12/31 03:39:47;;;;;;;6.80;2.83;;;;;;;9.02;59.95;100086.19;4928711;28;20549;-73
2022/12/31 03:42:12;;;;;;;4.63;2.63;;;;;;;8.91;59.80;100083.22;4929375;28;20055;-73
2022/12/31 03:44:37;;;;;;;5.53;2.72;;;;;;;9.05;59.42;100077.38;4912679;28;20094;-74
2022/12/31 03:47:03;;;;;;;11.00;3.03;;;;;;;8.74;60.24;100078.78;4929089;28;20224;-73
2022/12/31 03:49:29;;;;;;;8.57;2.55;;;;;;;9.03;59.58;100084.41;4929902;28;20255;-74
2022/12/31 03:51:54;;;;;;;7.25;3.85;;;;;;;8.91;60.30;100075.41;4926243;28;20464;-74
2022/12/31 03:54:19;;;;;;;3.92;2.65;;;;;;;8.90;59.93;100079.78;4942571;28;20047;-70
2022/12/31 03:56:45;;;;;;;3.75;2.80;;;;;;;8.42;62.19;100077.56;4939318;28;20047;-71
2022/12/31 03:59:10;;;;;;;8.32;3.85;;;;;;;8.64;61.40;100072.25;4927187;28;20465;-70
2022/12/31 04:01:36;;;;;;;5.20;2.70;;;;;;;8.97;60.41;100070.75;4938861;28;20035;-71
2022/12/31 04:04:02;;;;;;;3.90;2.50;;;;;;;8.93;60.65;100061.38;4926305;28;20311;-70
2022/12/31 04:06:27;;;;;;;5.63;3.22;;;;;;;8.52;61.68;100068.44;4925465;28;20469;-72
2022/12/31 04:08:53;;;;;;;4.18;2.85;;;;;;;8.72;61.55;100055.41;4910470;28;20035;-73
2022/12/31 04:11:18;;;;;;;4.38;2.83;;;;;;;8.98;60.18;100059.44;4927358;28;20043;-73
2022/12/31 04:13:44;;;;;;;4.90;2.72;;;;;;;8.70;61.08;100064.16;4924746;28;20069;-74
2022/12/31 04:16:09;;;;;;;4.70;3.08;;;;;;;8.83;60.60;100073.16;4944181;28;20031;-74
2022/12/31 04:18:34;;;;;;;8.23;3.42;;;;;;;8.93;60.39;100069.19;4926258;28;20296;-75
2022/12/31 04:21:01;;;;;;;6.70;2.58;;;;;;;8.90;60.49;100066.75;4929458;28;20564;-75
2022/12/31 04:23:27;;;;;;;5.13;2.95;;;;;;;8.81;60.53;100071.50;4925371;28;20223;-76
2022/12/31 04:25:53;;;;;;;3.72;2.53;;;;;;;8.82;60.17;100081.88;4925297;28;20090;-72
2022/12/31 04:28:18;;;;;;;5.25;2.80;;;;;;;8.93;60.17;100074.41;4942931;28;21050;-73
2022/12/31 04:30:44;;;;;;;4.78;2.20;;;;;;;8.84;60.21;100069.63;4926430;28;20094;-74
2022/12/31 04:33:09;;;;;;;6.80;2.10;;;;;;;9.04;59.99;100060.06;4924283;28;20043;-73
2022/12/31 04:35:35;;;;;;;4.18;2.22;;;;;;;9.14;59.33;100056.06;4938692;28;20031;-72
2022/12/31 04:38:00;;;;;;;5.07;2.05;;;;;;;8.55;61.39;100061.31;4928072;28;20630;-74
2022/12/31 04:40:25;;;;;;;4.60;1.42;;;;;;;8.85;60.39;100066.13;4927338;28;20444;-72
2022/12/31 04:42:51;;;;;;;4.97;2.28;;;;;;;8.86;60.30;100070.41;4923922;28;20520;-73
2022/12/31 04:45:16;;;;;;;3.25;1.63;;;;;;;8.47;61.45;100073.84;4927374;28;20035;-73
2022/12/31 04:47:42;;;;;;;6.13;2.28;;;;;;;8.59;60.91;100089.84;4940939;28;20058;-73
2022/12/31 04:50:07;;;;;;;6.10;1.77;;;;;;;8.88;60.05;100092.03;4946957;28;20351;-73
2022/12/31 04:52:33;;;;;;;3.80;1.77;;;;;;;8.61;60.28;100094.06;4944275;28;20047;-73
2022/12/31 04:54:58;;;;;;;3.95;1.20;;;;;;;8.79;60.14;100108.06;4930492;28;20027;-73
2022/12/31 04:57:24;;;;;;;2.65;1.48;;;;;;;8.28;61.45;100106.81;4945999;28;20073;-73
2022/12/31 04:59:49;;;;;;;4.40;1.50;;;;;;;8.93;59.63;100107.44;4944962;28;20086;-72
2022/12/31 05:02:15;;;;;;;3.35;1.27;;;;;;;8.14;61.36;100108.22;4930701;28;20124;-72
2022/12/31 05:04:40;;;;;;;3.78;1.67;;;;;;;8.67;60.03;100113.78;4943708;28;20046;-72
2022/12/31 05:07:06;;;;;;;3.53;0.70;;;;;;;8.89;59.34;100111.94;4931705;28;20050;-73
2022/12/31 05:09:31;;;;;;;1.88;0.70;;;;;;;8.50;59.84;100110.16;4931099;28;20086;-72
2022/12/31 05:11:57;;;;;;;3.40;0.93;;;;;;;8.53;60.30;100115.22;4931726;28;20047;-73
2022/12/31 05:14:22;;;;;;;2.65;0.63;;;;;;;8.53;59.97;100109.19;4930031;28;20446;-72
2022/12/31 05:16:48;;;;;;;3.00;0.80;;;;;;;7.93;61.51;100106.50;4929909;28;20039;-72
2022/12/31 05:19:13;;;;;;;4.35;0.40;;;;;;;8.90;58.53;100098.00;4946048;28;20512;-73
2022/12/31 05:21:39;;;;;;;2.28;0.63;;;;;;;8.44;60.16;100101.78;4944324;28;20027;-72
2022/12/31 05:24:04;;;;;;;2.45;0.68;;;;;;;8.53;59.69;100101.38;4932050;28;20560;-76
2022/12/31 05:26:30;;;;;;;1.23;0.60;;;;;;;8.62;59.50;100090.53;4944308;28;20046;-75
2022/12/31 05:28:55;;;;;;;2.72;0.40;;;;;;;7.99;61.10;100100.22;4931795;28;20578;-76
2022/12/31 05:31:21;;;;;;;1.40;0.40;;;;;;;8.60;59.42;100108.00;4931414;28;20497;-76
2022/12/31 05:33:47;;;;;;;0.82;0.20;;;;;;;8.81;58.66;100113.19;4942567;28;20062;-72
2022/12/31 05:36:13;;;;;;;1.10;0.30;;;;;;;8.65;59.24;100115.59;4932258;28;20252;-72
2022/12/31 05:38:38;;;;;;;1.63;0.95;;;;;;;8.49;59.16;100123.25;4928630;28;20051;-72
2022/12/31 05:41:06;;;;;;;1.25;0.68;;;;;;;8.86;58.20;100127.72;4931100;28;20461;-72
2022/12/31 05:43:35;;;;;;;0.73;0.20;;;;;;;8.75;58.65;100132.56;4942641;28;20039;-70
2022/12/31 05:46:04;;;;;;;1.63;0.30;;;;;;;8.63;58.83;100133.06;4943051;28;20552;-71
2022/12/31 05:48:30;;;;;;;0.88;0.40;;;;;;;8.51;59.12;100126.63;4927984;28;20640;-72
2022/12/31 05:50:56;;;;;;;4.20;0.30;;;;;;;8.60;59.31;100136.66;4932188;28;20049;-72
2022/12/31 05:53:22;;;;;;;2.10;0.30;;;;;;;8.63;59.09;100122.66;4940841;28;20043;-73
2022/12/31 05:55:47;;;;;;;1.80;0.43;;;;;;;8.51;59.21;100114.44;4928769;28;20046;-70
2022/12/31 05:58:14;;;;;;;1.55;0.35;;;;;;;8.84;58.18;100110.47;4930569;28;20438;-73
2022/12/31 06:00:40;;;;;;;3.35;0.30;;;;;;;8.57;59.23;100098.56;4943275;28;20314;-72
2022/12/31 06:03:06;;;;;;;4.00;0.30;;;;;;;8.62;58.77;100089.72;4943026;28;20544;-71
2022/12/31 06:05:31;;;;;;;1.40;0.25;;;;;;;8.65;59.06;100090.44;4928473;28;20095;-72
2022/12/31 06:07:57;;;;;;;1.73;0.20;;;;;;;9.03;57.54;100087.00;4928953;28;20281;-72
2022/12/31 06:10:22;;;;;;;5.03;0.47;;;;;;;8.57;59.04;100101.16;4927891;28;20686;-72
2022/12/31 06:12:48;;;;;;;1.75;0.20;;;;;;;8.35;59.83;100110.81;4926258;28;20126;-72
2022/12/31 06:15:13;;;;;;;3.53;0.30;;;;;;;8.29;59.69;100124.09;4928139;28;20038;-72
2022/12/31 06:17:38;;;;;;;3.97;0.30;;;;;;;8.63;58.63;100120.03;4927165;28;20039;-71
2022/12/31 06:20:05;;;;;;;2.97;0.30;;;;;;;8.94;57.95;100122.16;4914398;28;20032;-72
2022/12/31 06:22:30;;;;;;;2.95;0.50;;;;;;;8.77;58.49;100120.31;4927608;28;20352;-72
2022/12/31 06:24:56;;;;;;;3.03;0.38;;;;;;;8.50;59.66;100119.75;4928174;28;20035;-72
2022/12/31 06:27:21;;;;;;;3.45;0.57;;;;;;;8.25;59.80;100112.13;4927317;28;20043;-71
2022/12/31 06:29:47;;;;;;;1.38;0.40;;;;;;;8.76;58.34;100116.00;4928502;28;20236;-73
2022/12/31 06:32:14;;;;;;;1.17;0.28;;;;;;;8.41;59.38;100131.41;4912517;28;20422;-72
2022/12/31 06:34:40;;;;;;;1.13;0.20;;;;;;;8.44;59.65;100149.50;4926041;28;20042;-72
2022/12/31 06:37:05;;;;;;;2.47;0.20;;;;;;;8.47;59.36;100154.59;4927986;28;20063;-71
2022/12/31 06:39:31;;;;;;;4.40;0.30;;;;;;;8.35;59.56;100163.75;4926988;28;20042;-72
2022/12/31 06:41:56;;;;;;;3.50;0.22;;;;;;;8.27;59.78;100173.66;4925715;28;20077;-72
2022/12/31 06:44:22;;;;;;;1.58;0.25;;;;;;;8.69;58.93;100164.06;4929397;28;20046;-74
2022/12/31 06:46:48;;;;;;;0.77;0.28;;;;;;;8.81;58.19;100162.72;4928068;28;20047;-73
2022/12/31 06:49:15;;;;;;;0.98;0.30;;;;;;;8.82;58.27;100180.88;4911505;28;20035;-73
2022/12/31 06:51:41;;;;;;;1.50;0.40;;;;;;;8.33;60.13;100178.59;4940129;28;20042;-75
2022/12/31 06:54:06;;;;;;;2.38;0.75;;;;;;;8.40;59.91;100183.53;4929061;28;20615;-75
2022/12/31 06:56:33;;;;;;;1.60;0.60;;;;;;;8.54;59.45;100174.25;4927773;28;20039;-75
2022/12/31 06:58:59;;;;;;;2.35;0.77;;;;;;;8.74;58.74;100168.22;4929145;28;20336;-74
2022/12/31 07:01:48;;;;;;;1.13;0.70;;;;;;;8.44;59.71;100178.13;4929036;28;20061;-75
2022/12/31 07:04:31;;;;;;;3.80;0.40;;;;;;;8.55;59.60;100178.53;4929362;28;20160;-74
2022/12/31 07:07:29;;;;;;;2.60;0.60;;;;;;;7.93;61.81;100166.34;4927255;28;20039;-78
2022/12/31 07:10:24;;;;;;;1.60;0.52;;;;;;;8.39;60.13;100167.06;4927946;28;20053;-75
2022/12/31 07:13:30;;;;;;;2.15;0.52;;;;;;;8.20;60.90;100163.53;4933778;28;20054;-76
2022/12/31 07:16:17;;;;;;;2.17;0.68;;;;;;;8.16;61.26;100155.03;4928604;28;20295;-75
2022/12/31 07:18:51;;;;;;;1.45;0.50;;;;;;;8.44;60.05;100148.66;4928246;28;20165;-76
2022/12/31 07:21:27;;;;;;;1.95;0.60;;;;;;;8.36;60.52;100159.41;4929636;28;20054;-76
2022/12/31 07:23:55;;;;;;;2.97;1.38;;;;;;;8.05;61.00;100160.66;4926660;28;20518;-72
2022/12/31 07:26:43;;;;;;;4.47;1.38;;;;;;;8.18;60.64;100157.53;4925131;28;20719;-72
2022/12/31 07:29:34;;;;;;;2.47;0.60;;;;;;;8.05;60.83;100154.63;4929223;28;20054;-71
2022/12/31 07:32:17;;;;;;;1.98;0.55;;;;;;;8.48;59.54;100168.44;4934437;28;20051;-72
2022/12/31 07:35:10;;;;;;;4.95;1.02;;;;;;;8.07;60.30;100152.78;4932654;28;20039;-71
2022/12/31 07:37:55;;;;;;;2.08;0.73;;;;;;;8.02;60.35;100158.16;4933263;28;20536;-72
2022/12/31 07:40:49;;;;;;;1.25;0.40;;;;;;;7.90;60.38;100163.88;4944907;28;20458;-72
2022/12/31 07:43:44;;;;;;;1.30;0.25;;;;;;;7.93;60.20;100142.94;4941352;28;20449;-71
2022/12/31 07:46:26;;;;;;;1.83;0.45;;;;;;;8.10;59.26;100145.69;4932674;28;20130;-72
2022/12/31 07:48:52;;;;;;;0.47;0.20;;;;;;;7.78;60.07;100156.56;4940553;28;20047;-72
2022/12/31 07:51:18;;;;;;;2.47;0.20;;;;;;;7.49;60.79;100153.34;4949381;28;20027;-72
2022/12/31 07:53:44;;;;;;;2.47;0.10;;;;;;;7.52;60.37;100168.81;4921104;28;20553;-71
2022/12/31 07:56:10;;;;;;;1.95;0.15;;;;;;;7.44;60.49;100160.44;4935763;28;20027;-71
2022/12/31 07:58:57;;;;;;;3.35;0.30;;;;;;;7.41;59.94;100165.78;4930056;28;20118;-72
2022/12/31 08:01:47;;;;;;;1.98;0.20;;;;;;;7.82;58.89;100152.94;4948617;28;20043;-71
2022/12/31 08:04:26;;;;;;;0.70;0.20;;;;;;;8.00;57.93;100160.00;4932491;28;20091;-72
2022/12/31 08:07:34;;;;;;;0.47;0.10;;;;;;;7.59;58.72;100169.44;4922388;28;20050;-72
2022/12/31 08:10:21;;;;;;;1.65;0.00;;;;;;;7.90;58.02;100169.94;4935294;28;20537;-71
2022/12/31 08:12:48;;;;;;;1.00;0.08;;;;;;;7.45;58.66;100180.34;4931350;28;20504;-70
2022/12/31 08:15:18;;;;;;;0.52;0.05;;;;;;;7.17;59.77;100190.94;4931793;28;20041;-72
2022/12/31 08:17:44;;;;;;;0.57;0.10;;;;;;;7.16;59.48;100187.50;4928239;28;20035;-72
2022/12/31 08:20:15;;;;;;;0.88;0.32;;;;;;;7.51;58.51;100180.09;4930288;28;20057;-72
2022/12/31 08:22:49;;;;;;;0.95;0.00;;;;;;;7.08;59.33;100176.50;4928442;28;20046;-71
2022/12/31 08:25:51;;;;;;;1.60;0.00;;;;;;;7.40;58.67;100174.47;4929320;28;20086;-72
2022/12/31 08:28:27;;;;;;;1.50;0.10;;;;;;;7.29;58.96;100175.72;4913919;28;20047;-72
2022/12/31 08:31:19;;;;;;;0.32;0.00;;;;;;;7.34;59.16;100180.75;4930682;28;20066;-70
2022/12/31 08:34:06;;;;;;;1.17;0.17;;;;;;;7.45;58.73;100182.97;4926370;28;20677;-73
2022/12/31 08:36:44;;;;;;;0.70;0.00;;;;;;;7.53;58.77;100188.69;4927140;28;20039;-72
2022/12/31 08:39:16;;;;;;;0.55;0.00;;;;;;;7.45;59.16;100198.56;4946077;28;20728;-72
2022/12/31 08:41:46;;;;;;;1.02;0.10;;;;;;;7.50;59.06;100209.63;4943925;28;20031;-71
2022/12/31 08:44:31;;;;;;;2.53;0.10;;;;;;;7.77;58.14;100193.91;4931842;28;20065;-72
2022/12/31 08:47:16;;;;;;;0.47;0.10;;;;;;;7.82;58.01;100192.78;4926302;28;20051;-72
2022/12/31 08:49:41;;;;;;;0.70;0.08;;;;;;;7.94;57.79;100187.13;4920797;28;20042;-71
2022/12/31 08:52:23;;;;;;;0.10;0.00;;;;;;;7.65;58.88;100201.28;4933605;28;20035;-71
2022/12/31 08:54:49;;;;;;;0.10;0.00;;;;;;;7.77;58.43;100193.91;4934139;28;20193;-71
2022/12/31 08:57:17;;;;;;;2.58;0.10;;;;;;;7.93;58.05;100181.97;4930843;28;20042;-71
2022/12/31 09:00:08;;;;;;;0.50;0.10;;;;;;;7.91;57.74;100166.44;4929754;28;20646;-71
2022/12/31 09:02:34;;;;;;;1.35;0.10;;;;;;;7.81;57.98;100157.28;4905227;28;20058;-72
2022/12/31 09:05:22;;;;;;;1.52;0.40;;;;;;;7.88;58.55;100150.09;4931458;28;20047;-72
2022/12/31 09:08:32;;;;;;;1.20;0.20;;;;;;;7.92;58.63;100146.47;4920493;28;20066;-72
2022/12/31 09:10:59;;;;;;;2.42;0.10;;;;;;;7.91;59.00;100148.22;4943175;28;20061;-71
2022/12/31 09:13:40;;;;;;;1.33;0.20;;;;;;;7.85;59.53;100173.63;4941444;28;20130;-71
2022/12/31 09:16:24;;;;;;;2.25;0.25;;;;;;;8.08;59.05;100173.53;4942811;28;20077;-72
2022/12/31 09:18:49;;;;;;;2.47;0.20;;;;;;;8.00;60.07;100167.78;4926844;28;20039;-71
2022/12/31 09:21:15;;;;;;;2.88;0.30;;;;;;;8.24;59.33;100173.75;4929486;28;20400;-72
2022/12/31 09:23:44;;;;;;;0.82;0.30;;;;;;;8.18;60.05;100180.97;4926580;28;20533;-72
2022/12/31 09:26:34;;;;;;;2.22;0.30;;;;;;;8.35;58.97;100160.31;4945303;28;20726;-71
2022/12/31 09:29:09;;;;;;;2.35;0.20;;;;;;;8.39;59.18;100161.88;4927093;28;20284;-71
2022/12/31 09:31:42;;;;;;;1.08;0.30;;;;;;;8.45;59.03;100146.00;4929827;28;20049;-71
2022/12/31 09:34:36;;;;;;;1.80;0.20;;;;;;;8.38;60.19;100154.13;4932755;28;20582;-72
2022/12/31 09:37:15;;;;;;;1.23;0.32;;;;;;;8.61;59.53;100158.38;4923505;28;20105;-71
2022/12/31 09:39:46;;;;;;;1.73;0.50;;;;;;;8.45;59.82;100138.19;4923874;28;20075;-71
2022/12/31 09:42:39;;;;;;;;;;;;;;;8.66;59.57;100143.38;4933980;28;20114;-71
2022/12/31 09:45:23;;;;;;;1.38;0.20;;;;;;;8.72;59.25;100143.13;4933701;28;20704;-71
2022/12/31 09:48:04;;;;;;;0.70;0.20;;;;;;;8.42;60.69;100135.69;4930745;28;20047;-71
2022/12/31 09:50:41;;;;;;;1.60;0.63;;;;;;;8.23;61.47;100153.03;4932184;28;20150;-71
2022/12/31 09:53:07;;;;;;;2.88;1.52;;;;;;;8.52;60.77;100151.78;4946009;28;20131;-71
2022/12/31 09:55:52;;;;;;;1.40;0.38;;;;;;;8.09;62.55;100159.63;4938994;28;20037;-71
2022/12/31 09:58:43;;;;;;;1.10;0.52;;;;;;;8.73;60.78;100139.59;4939313;28;20082;-71
2022/12/31 10:01:19;;;;;;;1.17;0.63;;;;;;;8.58;61.63;100141.06;4933505;28;20109;-72
2022/12/31 10:04:23;;;;;;;1.13;0.70;;;;;;;8.48;61.96;100140.63;4929880;28;20043;-71
2022/12/31 10:06:49;;;;;;;1.33;0.40;;;;;;;7.96;63.89;100145.44;4947689;28;20050;-71
2022/12/31 10:09:38;;;;;;;3.42;0.50;;;;;;;7.95;64.53;100139.34;4952936;28;20038;-71
2022/12/31 10:12:22;;;;;;;1.50;0.60;;;;;;;8.43;63.14;100136.56;4930356;28;20427;-72
2022/12/31 10:14:48;;;;;;;1.80;0.70;;;;;;;8.67;62.72;100145.03;4935434;28;20597;-72
2022/12/31 10:17:35;;;;;;;1.52;0.65;;;;;;;8.61;62.96;100145.34;4933319;28;20340;-71
2022/12/31 10:20:52;;;;;;;2.53;0.73;;;;;;;8.91;62.27;100153.59;4932327;28;20031;-71
2022/12/31 10:23:36;;;;;;;2.03;0.75;;;;;;;8.63;63.89;100144.34;4927585;28;20055;-71
2022/12/31 10:26:12;;;;;;;2.80;0.93;;;;;;;8.76;62.87;100139.47;4931341;28;20072;-72
2022/12/31 10:28:58;;;;;;;3.10;0.65;;;;;;;8.92;62.99;100140.50;4944669;28;20071;-71
2022/12/31 10:31:53;;;;;;;2.78;0.60;;;;;;;9.14;62.33;100129.06;4934768;28;20463;-71
2022/12/31 10:34:22;;;;;;;0.63;0.30;;;;;;;9.12;62.34;100136.13;4944047;28;20051;-71
2022/12/31 10:36:56;;;;;;;1.33;0.45;;;;;;;9.21;62.19;100134.84;4943147;28;20043;-71
2022/12/31 10:39:53;;;;;;;1.05;0.60;;;;;;;8.83;63.67;100146.13;4931294;28;20043;-71
2022/12/31 10:42:40;;;;;;;3.85;0.70;;;;;;;9.27;62.53;100158.88;4931769;28;20474;-71
2022/12/31 10:45:33;;;;;;;1.65;0.22;;;;;;;9.30;62.62;100139.66;4930249;28;20045;-72
2022/12/31 10:48:20;;;;;;;1.40;0.52;;;;;;;9.47;61.77;100154.50;4946346;28;20047;-72
2022/12/31 10:51:19;;;;;;;2.08;0.40;;;;;;;9.12;63.19;100162.19;4932203;28;20747;-71
2022/12/31 10:54:10;;;;;;;1.55;0.40;;;;;;;8.76;64.77;100165.50;4944308;28;20047;-72
2022/12/31 10:56:42;;;;;;;1.83;0.30;;;;;;;8.82;64.13;100156.59;4929311;28;20031;-72
2022/12/31 10:59:35;;;;;;;1.10;0.30;;;;;;;9.35;62.69;100164.59;4931816;28;20222;-71
2022/12/31 11:02:00;;;;;;;1.10;0.38;;;;;;;9.14;63.39;100168.19;4933405;28;20139;-71
2022/12/31 11:04:41;;;;;;;1.20;0.40;;;;;;;9.19;63.33;100161.03;4934934;28;20432;-72
2022/12/31 11:07:50;;;;;;;3.00;0.45;;;;;;;9.37;62.39;100159.31;4929707;28;20058;-71
2022/12/31 11:10:51;;;;;;;2.75;0.43;;;;;;;9.34;62.59;100149.88;4924544;28;20745;-71
2022/12/31 11:13:28;;;;;;;1.63;0.10;;;;;;;9.35;62.04;100154.16;4943742;28;20035;-72
2022/12/31 11:16:08;;;;;;;2.15;0.55;;;;;;;9.82;60.93;100137.22;4943221;28;20071;-71
2022/12/31 11:19:02;;;;;;;3.55;0.20;;;;;;;9.93;60.41;100134.94;4929802;28;22476;-71
2022/12/31 11:21:45;;;;;;;1.70;0.60;;;;;;;10.37;59.17;100128.38;4942547;28;20031;-71
2022/12/31 11:25:02;;;;;;;3.08;0.75;;;;;;;9.47;61.29;100125.81;4929755;28;20039;-71
2022/12/31 11:27:51;;;;;;;1.52;0.20;;;;;;;10.17;59.55;100121.59;4933695;28;20051;-71
2022/12/31 11:30:38;;;;;;;4.53;0.25;;;;;;;9.95;60.21;100127.88;4930939;28;20316;-71
2022/12/31 11:33:10;;;;;;;8.95;0.50;;;;;;;10.34;58.96;100134.63;4929285;28;20280;-72
2022/12/31 11:35:42;;;;;;;1.75;0.38;;;;;;;10.32;58.65;100135.63;4913100;28;20511;-71
2022/12/31 11:38:20;;;;;;;3.85;0.25;;;;;;;10.08;59.90;100122.88;4944992;28;20051;-71
2022/12/31 11:41:35;;;;;;;5.47;0.30;;;;;;;10.57;58.68;100123.00;4931913;28;20122;-71
2022/12/31 11:44:31;;;;;;;4.90;0.22;;;;;;;10.38;59.19;100119.66;4909716;29;20047;-71
2022/12/31 11:47:10;;;;;;;0.98;0.20;;;;;;;11.05;57.25;100139.66;4943225;28;20063;-71
2022/12/31 11:49:38;;;;;;;2.45;0.10;;;;;;;10.58;58.50;100122.06;4904109;28;20982;-71
2022/12/31 11:52:19;;;;;;;4.13;0.20;;;;;;;10.60;58.10;100132.44;4929129;28;20306;-72
2022/12/31 11:54:57;;;;;;;6.47;0.15;;;;;;;10.69;58.13;100125.91;4940479;28;20390;-72
2022/12/31 11:57:28;;;;;;;2.25;1.10;;;;;;;10.60;57.28;100135.06;4929548;28;20058;-71
2022/12/31 12:00:13;;;;;;;2.92;0.17;;;;;;;10.52;58.01;100138.06;4903344;28;20563;-71
2022/12/31 12:02:49;;;;;;;2.28;0.20;;;;;;;10.54;57.76;100138.81;4927685;28;20671;-71
2022/12/31 12:05:19;;;;;;;3.10;0.22;;;;;;;10.20;58.58;100124.03;4943698;28;20086;-71
2022/12/31 12:07:45;;;;;;;3.42;0.45;;;;;;;10.33;57.53;100122.50;4942533;28;20206;-71
2022/12/31 12:10:27;;;;;;;3.83;0.10;;;;;;;10.42;57.78;100131.63;4931795;28;20050;-71
2022/12/31 12:12:55;;;;;;;3.83;0.10;;;;;;;10.43;57.63;100122.84;4927485;28;20052;-71
2022/12/31 12:15:28;;;;;;;4.75;0.45;;;;;;;10.57;57.65;100123.00;4928609;28;20039;-71